Terminal Aerodrome Forecast
Issued by NWS Corpus Christi, TX

Home | Current Version | Previous Version | Text Only | Print | Product List | Glossary On
Versions: 1 2 3 4 5 6 7 8 9 10 11 12
000
FTUS44 KCRP 212300
TAFVCT
TAF
KVCT 212338Z 2200/2224 16018G26KT P6SM SCT030
     FM220100 16013KT P6SM FEW020
     FM220700 15006KT P6SM SCT015
     FM220900 18005KT 5SM BR BKN015
     FM221400 18014KT P6SM SCT025
     FM222100 16015G20KT P6SM FEW040=

USA.gov is the U.S. government's official web portal to all federal, state and local government web resources and services.